Time;durP1;ratioP1;P1;durP2;ratioP2;P2;SDS_P1;SDS_P2;PMS_P1;PMS_P2;Temp;Humidity;BMP_temperature;BMP_pressure;BME280_temperature;BME280_humidity;BME280_pressure;Samples;Min_cycle;Max_cycle;Signal;HPM_P1;HPM_P2
2022/12/30 03:36:26;;;;;;;11.23;8.67;;;12.80;99.90;;;;;;4589318;19;20456;-29
2022/12/30 03:37:58;;;;;;;14.00;9.37;;;12.80;99.90;;;;;;4589176;19;21128;-28
2022/12/30 03:39:35;;;;;;;12.00;9.02;;;12.80;99.90;;;;;;4588933;19;20022;-35
2022/12/30 03:41:07;;;;;;;12.97;8.87;;;12.80;99.90;;;;;;4589341;19;20058;-35
2022/12/30 03:42:38;;;;;;;14.00;9.27;;;12.90;99.90;;;;;;4588989;19;20022;-29
2022/12/30 03:44:09;;;;;;;12.00;8.90;;;12.90;99.90;;;;;;4589103;19;20383;-34
2022/12/30 03:45:40;;;;;;;13.60;9.60;;;12.90;99.90;;;;;;4589092;19;20011;-29
2022/12/30 03:47:14;;;;;;;14.10;9.53;;;12.90;99.90;;;;;;4588981;19;20013;-32
2022/12/30 03:48:46;;;;;;;12.57;8.77;;;12.90;99.90;;;;;;4588872;19;20472;-37
2022/12/30 03:50:18;;;;;;;13.80;8.83;;;12.90;99.90;;;;;;4588745;19;20074;-32
2022/12/30 03:51:50;;;;;;;14.27;9.52;;;12.90;99.90;;;;;;4589359;19;20019;-33
2022/12/30 03:53:21;;;;;;;11.43;8.07;;;12.80;99.90;;;;;;4589266;19;20400;-35
2022/12/30 03:54:52;;;;;;;11.82;8.52;;;12.90;99.90;;;;;;4588622;19;20014;-32
2022/12/30 03:56:24;;;;;;;12.47;8.90;;;12.90;99.90;;;;;;4587780;19;20015;-31
2022/12/30 03:57:55;;;;;;;12.20;8.75;;;12.90;99.90;;;;;;4588911;19;20034;-32
2022/12/30 03:59:28;;;;;;;11.57;8.33;;;12.90;99.90;;;;;;4588803;19;20007;-28
2022/12/30 04:01:00;;;;;;;12.37;8.37;;;12.90;99.90;;;;;;4588668;19;20614;-33
2022/12/30 04:02:32;;;;;;;11.37;7.70;;;12.90;99.90;;;;;;4588538;19;20006;-31
2022/12/30 04:04:05;;;;;;;11.57;8.40;;;12.90;99.90;;;;;;4588489;19;20359;-31
2022/12/30 04:05:37;;;;;;;11.90;9.00;;;12.90;99.90;;;;;;4588505;19;20021;-34
2022/12/30 04:07:10;;;;;;;12.27;8.83;;;12.90;99.90;;;;;;4588855;19;20014;-34
2022/12/30 04:08:41;;;;;;;13.07;8.43;;;12.90;99.90;;;;;;4588670;19;20014;-30
2022/12/30 04:10:12;;;;;;;12.57;9.02;;;12.90;99.90;;;;;;4588792;19;20475;-36
2022/12/30 04:11:45;;;;;;;11.70;8.60;;;12.90;99.90;;;;;;4588459;19;20502;-35
2022/12/30 04:13:16;;;;;;;11.43;8.20;;;12.90;99.90;;;;;;4588478;19;20074;-34
2022/12/30 04:14:48;;;;;;;11.95;8.60;;;12.90;99.90;;;;;;4588739;19;20018;-35
2022/12/30 04:16:19;;;;;;;10.52;7.60;;;12.80;99.90;;;;;;4587554;19;20053;-28
2022/12/30 04:17:50;;;;;;;10.98;7.70;;;12.90;99.90;;;;;;4589851;19;20019;-28
2022/12/30 04:19:21;;;;;;;10.98;7.63;;;12.90;99.90;;;;;;4590621;19;20015;-30
2022/12/30 04:20:52;;;;;;;13.20;7.85;;;12.90;99.90;;;;;;4590328;19;20346;-31
2022/12/30 04:22:25;;;;;;;10.33;7.03;;;12.90;99.90;;;;;;4590407;19;20022;-30
2022/12/30 04:23:57;;;;;;;12.13;7.97;;;12.90;99.90;;;;;;4589205;19;20018;-29
2022/12/30 04:25:28;;;;;;;12.07;7.65;;;12.90;99.90;;;;;;4589110;19;20092;-30
2022/12/30 04:27:00;;;;;;;12.37;7.70;;;12.90;99.90;;;;;;4590124;19;20014;-29
2022/12/30 04:28:33;;;;;;;11.00;7.17;;;13.00;99.90;;;;;;4589652;19;20018;-33
2022/12/30 04:30:05;;;;;;;10.20;7.85;;;13.00;99.90;;;;;;4590192;19;20042;-30
2022/12/30 04:31:36;;;;;;;;;;;13.00;99.90;;;;;;4591380;19;20014;-30
2022/12/30 04:33:08;;;;;;;11.65;7.70;;;13.00;99.90;;;;;;4590837;19;20248;-30
2022/12/30 04:34:40;;;;;;;8.70;7.00;;;13.00;99.90;;;;;;4590137;19;20011;-28
2022/12/30 04:59:04;;;;;;;12.93;7.20;;;13.30;99.90;;;;;;4590374;19;20007;-33
2022/12/30 05:00:36;;;;;;;11.23;7.38;;;13.30;99.90;;;;;;4589800;19;20018;-28
2022/12/30 05:02:07;;;;;;;10.18;7.63;;;13.30;99.90;;;;;;4589830;19;20048;-30
2022/12/30 05:03:38;;;;;;;13.63;8.38;;;13.30;99.90;;;;;;4589898;19;20027;-29
2022/12/30 05:05:11;;;;;;;12.67;7.60;;;13.40;99.90;;;;;;4590443;19;20353;-31
2022/12/30 05:06:42;;;;;;;10.63;7.40;;;13.40;99.90;;;;;;4590598;19;20043;-34
2022/12/30 05:08:13;;;;;;;12.63;8.02;;;13.40;99.90;;;;;;4590234;19;20014;-27
2022/12/30 05:09:45;;;;;;;13.30;8.23;;;13.40;99.90;;;;;;4590178;19;20026;-31
2022/12/30 05:11:17;;;;;;;10.70;7.50;;;13.50;99.90;;;;;;4590730;19;20014;-31
2022/12/30 05:12:48;;;;;;;12.30;8.27;;;13.50;99.90;;;;;;4591115;19;19999;-29
2022/12/30 05:14:20;;;;;;;10.02;7.65;;;13.50;99.90;;;;;;4590306;19;20010;-31
2022/12/30 05:15:53;;;;;;;8.67;7.00;;;13.40;99.90;;;;;;4589836;19;20011;-29
2022/12/30 05:17:24;;;;;;;11.88;8.18;;;13.40;99.90;;;;;;4590343;19;20504;-34
2022/12/30 05:18:55;;;;;;;12.00;8.23;;;13.50;99.90;;;;;;4590250;19;20014;-30
2022/12/30 05:20:28;;;;;;;10.50;7.67;;;13.60;99.90;;;;;;4589868;19;20022;-29
2022/12/30 05:22:00;;;;;;;16.37;10.23;;;13.50;99.90;;;;;;4590384;19;20010;-32
2022/12/30 05:27:13;;;;;;;14.40;8.97;;;13.30;99.90;;;;;;4590313;19;20464;-31
2022/12/30 05:28:46;;;;;;;14.70;9.18;;;13.30;99.90;;;;;;4589037;19;20019;-32
2022/12/30 05:30:18;;;;;;;21.30;13.50;;;13.30;99.90;;;;;;4588499;19;20021;-30
2022/12/30 05:31:49;;;;;;;18.23;12.98;;;13.20;99.90;;;;;;4587173;19;20011;-31
2022/12/30 05:33:21;;;;;;;19.08;11.30;;;13.20;99.90;;;;;;4590625;19;20010;-33
2022/12/30 05:34:54;;;;;;;15.03;11.00;;;13.20;99.90;;;;;;4589834;19;20015;-32
2022/12/30 05:36:25;;;;;;;12.65;8.52;;;13.20;99.90;;;;;;4588833;19;20022;-30
2022/12/30 05:37:59;;;;;;;10.93;7.07;;;13.20;99.90;;;;;;4590230;19;20015;-30
2022/12/30 05:39:30;;;;;;;9.33;7.10;;;13.20;99.90;;;;;;4590434;19;20013;-31
2022/12/30 05:41:01;;;;;;;11.40;7.20;;;13.20;99.90;;;;;;4589741;19;20019;-32
2022/12/30 05:42:32;;;;;;;12.88;6.20;;;13.20;99.90;;;;;;4589894;19;20022;-30
2022/12/30 05:44:03;;;;;;;10.40;7.10;;;13.20;99.90;;;;;;4590369;19;20499;-30
2022/12/30 05:45:35;;;;;;;8.97;5.73;;;13.20;99.90;;;;;;4589497;19;20032;-30
2022/12/30 05:47:07;;;;;;;8.83;6.27;;;13.20;99.90;;;;;;4589703;19;20007;-29
2022/12/30 05:48:40;;;;;;;9.80;6.07;;;13.10;99.90;;;;;;4589967;19;20014;-32
2022/12/30 05:50:11;;;;;;;12.00;8.55;;;13.10;99.90;;;;;;4590399;19;20362;-30
2022/12/30 05:51:42;;;;;;;15.20;10.07;;;13.10;99.90;;;;;;4589725;19;20577;-31
2022/12/30 05:53:13;;;;;;;10.55;6.95;;;13.20;99.90;;;;;;4589837;19;20475;-29
2022/12/30 05:54:46;;;;;;;10.87;6.50;;;13.10;99.90;;;;;;4589782;19;20015;-29
2022/12/30 05:56:17;;;;;;;11.88;6.38;;;13.10;99.90;;;;;;4589139;19;20015;-31
2022/12/30 05:57:48;;;;;;;11.57;6.75;;;13.10;99.90;;;;;;4589063;19;20029;-29
2022/12/30 05:59:19;;;;;;;10.68;6.57;;;13.10;99.90;;;;;;4593794;19;20006;-31
2022/12/30 06:00:51;;;;;;;10.27;6.82;;;13.10;99.90;;;;;;4592810;19;20011;-29
2022/12/30 06:02:22;;;;;;;14.02;7.53;;;13.10;99.90;;;;;;4592880;19;20086;-30
2022/12/30 06:03:56;;;;;;;11.57;6.95;;;13.10;99.90;;;;;;4594125;19;20015;-33
2022/12/30 06:05:28;;;;;;;10.33;7.33;;;13.10;99.90;;;;;;4593551;19;20045;-31
2022/12/30 06:06:59;;;;;;;10.57;8.05;;;13.10;99.90;;;;;;4593607;19;20023;-31
2022/12/30 06:08:30;;;;;;;12.98;8.23;;;13.10;99.90;;;;;;4593671;19;20007;-31
2022/12/30 06:10:02;;;;;;;17.23;12.32;;;13.20;99.90;;;;;;4592625;19;20010;-32
2022/12/30 06:11:33;;;;;;;14.38;10.90;;;13.20;99.90;;;;;;4593644;19;20379;-28
2022/12/30 06:13:05;;;;;;;12.37;9.43;;;13.30;99.90;;;;;;4594086;19;20015;-34
2022/12/30 06:14:37;;;;;;;9.43;6.30;;;13.30;99.90;;;;;;4593748;19;20011;-29
2022/12/30 06:16:08;;;;;;;9.63;6.43;;;13.30;99.90;;;;;;4591793;19;20018;-30
2022/12/30 06:17:39;;;;;;;17.60;11.70;;;13.40;99.90;;;;;;4592187;19;20078;-30
2022/12/30 06:19:10;;;;;;;15.65;11.32;;;13.40;99.90;;;;;;4593251;19;20017;-29
2022/12/30 06:20:43;;;;;;;13.27;9.52;;;13.40;99.90;;;;;;4592711;19;20348;-29
2022/12/30 06:22:14;;;;;;;9.50;7.00;;;13.40;99.90;;;;;;4591594;19;20387;-33
2022/12/30 06:23:46;;;;;;;9.67;6.20;;;13.40;99.90;;;;;;4591776;19;20463;-31
2022/12/30 06:25:17;;;;;;;8.35;5.18;;;13.40;99.90;;;;;;4592279;19;20082;-31
2022/12/30 06:26:48;;;;;;;8.55;5.55;;;13.40;99.90;;;;;;4593931;19;20014;-34
2022/12/30 06:28:20;;;;;;;8.10;5.40;;;13.40;99.90;;;;;;4593225;19;20014;-29
2022/12/30 06:29:52;;;;;;;13.13;7.13;;;13.40;99.90;;;;;;4593265;19;20467;-28
2022/12/30 06:31:23;;;;;;;25.48;14.93;;;13.40;99.90;;;;;;4592729;19;20022;-31
2022/12/30 06:32:54;;;;;;;26.33;16.95;;;13.50;99.90;;;;;;4592683;19;20014;-35
2022/12/30 06:34:26;;;;;;;28.45;18.75;;;13.50;99.90;;;;;;4592462;19;20466;-31
2022/12/30 06:35:57;;;;;;;26.00;17.03;;;13.50;99.90;;;;;;4590862;19;20019;-31
2022/12/30 06:37:29;;;;;;;15.85;10.73;;;13.50;99.90;;;;;;4591080;19;20035;-31
2022/12/30 06:39:00;;;;;;;17.67;9.25;;;13.50;99.90;;;;;;4591061;19;20030;-30
2022/12/30 06:40:31;;;;;;;;;;;13.50;99.90;;;;;;4595209;19;20011;-29
2022/12/30 06:42:03;;;;;;;16.97;7.47;;;13.50;99.90;;;;;;4593701;19;19915;-30
2022/12/30 06:43:34;;;;;;;13.38;7.18;;;13.50;99.90;;;;;;4592992;19;20010;-30
2022/12/30 06:45:06;;;;;;;16.58;8.80;;;13.40;99.90;;;;;;4592433;19;20018;-31
2022/12/30 06:46:38;;;;;;;18.50;9.00;;;13.40;99.90;;;;;;4592124;19;20035;-32
2022/12/30 06:48:09;;;;;;;20.85;9.95;;;13.40;99.90;;;;;;4591068;19;20010;-31
2022/12/30 06:49:41;;;;;;;19.30;12.53;;;13.40;99.90;;;;;;4591241;19;20383;-30
2022/12/30 06:51:12;;;;;;;20.33;12.25;;;13.40;99.90;;;;;;4591181;19;20013;-31
2022/12/30 06:52:43;;;;;;;13.05;7.95;;;13.30;99.90;;;;;;4591687;19;20013;-33
2022/12/30 06:54:14;;;;;;;13.18;7.25;;;13.30;99.90;;;;;;4592889;19;20357;-29
2022/12/30 06:55:46;;;;;;;13.05;7.05;;;13.30;99.90;;;;;;4592928;19;20014;-31
2022/12/30 06:57:17;;;;;;;14.10;7.13;;;13.30;99.90;;;;;;4592519;19;20010;-31
2022/12/30 06:58:48;;;;;;;10.23;5.78;;;13.30;99.90;;;;;;4592941;19;20031;-31
2022/12/30 07:00:19;;;;;;;9.18;5.47;;;13.30;99.90;;;;;;4591945;19;20697;-29
2022/12/30 07:05:10;;;;;;;25.53;11.53;;;13.30;99.90;;;;;;4591690;19;20006;-30
2022/12/30 07:06:41;;;;;;;24.60;13.70;;;13.30;99.90;;;;;;4591159;19;20026;-29
2022/12/30 07:08:13;;;;;;;17.95;9.57;;;13.30;99.90;;;;;;4590697;19;20018;-31
2022/12/30 07:09:44;;;;;;;13.57;8.68;;;13.30;99.90;;;;;;4589729;19;20011;-31
2022/12/30 07:11:15;;;;;;;12.75;7.50;;;13.30;99.90;;;;;;4594118;19;20081;-30
2022/12/30 07:12:46;;;;;;;9.38;5.80;;;13.30;99.90;;;;;;4592143;19;20022;-30
2022/12/30 07:14:18;;;;;;;9.03;4.67;;;13.30;99.90;;;;;;4592227;19;20014;-30
2022/12/30 07:15:49;;;;;;;9.13;5.07;;;13.20;99.90;;;;;;4591884;19;20021;-30
2022/12/30 07:17:20;;;;;;;10.10;4.93;;;13.20;99.90;;;;;;4592034;19;20373;-29
2022/12/30 07:18:52;;;;;;;;;;;13.30;99.90;;;;;;4592546;19;20023;-31
2022/12/30 07:20:24;;;;;;;10.93;6.22;;;13.30;99.90;;;;;;4591041;19;19978;-30
2022/12/30 07:21:55;;;;;;;8.38;5.00;;;13.20;99.90;;;;;;4590774;19;20358;-31
2022/12/30 07:23:26;;;;;;;9.95;5.03;;;13.20;99.90;;;;;;4589372;19;20016;-31
2022/12/30 07:24:57;;;;;;;10.48;5.65;;;13.20;99.90;;;;;;4592738;19;20037;-30
2022/12/30 07:26:28;;;;;;;8.38;4.93;;;13.20;99.90;;;;;;4592563;19;20010;-31
2022/12/30 07:28:01;;;;;;;7.85;4.68;;;13.20;99.90;;;;;;4592353;19;20029;-31
2022/12/30 07:29:32;;;;;;;9.17;5.00;;;13.20;99.90;;;;;;4591925;19;20476;-30
2022/12/30 07:31:04;;;;;;;6.30;3.65;;;13.10;99.90;;;;;;4591874;19;20018;-30
2022/12/30 07:32:35;;;;;;;7.72;5.00;;;13.10;99.90;;;;;;4591356;19;20042;-30
2022/12/30 07:34:06;;;;;;;8.02;4.85;;;13.10;99.90;;;;;;4592377;19;20014;-30
2022/12/30 07:35:39;;;;;;;8.25;5.07;;;13.10;99.90;;;;;;4592114;19;20013;-30
2022/12/30 07:37:10;;;;;;;14.43;7.93;;;13.10;99.90;;;;;;4592146;19;20016;-33
2022/12/30 07:38:41;;;;;;;11.57;9.52;;;13.10;99.90;;;;;;4591717;19;20349;-34
2022/12/30 07:40:13;;;;;;;;;;;13.10;99.90;;;;;;4593711;19;20022;-31
2022/12/30 07:41:44;;;;;;;10.33;5.67;;;13.10;99.90;;;;;;4592170;19;19981;-30
2022/12/30 07:43:15;;;;;;;9.85;5.68;;;13.10;99.90;;;;;;4591740;19;20010;-30
2022/12/30 07:44:47;;;;;;;13.95;7.63;;;13.10;99.90;;;;;;4592089;19;20028;-29
2022/12/30 07:46:18;;;;;;;12.70;7.32;;;13.10;99.90;;;;;;4591059;19;20018;-30
2022/12/30 07:47:49;;;;;;;11.88;6.97;;;13.10;99.90;;;;;;4590890;19;20472;-30
2022/12/30 07:49:20;;;;;;;13.88;7.10;;;13.10;99.90;;;;;;4592129;19;20070;-31
2022/12/30 07:50:51;;;;;;;8.68;5.65;;;13.20;99.90;;;;;;4592558;19;20037;-30
2022/12/30 07:52:23;;;;;;;7.80;4.53;;;13.10;99.90;;;;;;4591619;19;20074;-30
2022/12/30 07:53:54;;;;;;;7.47;4.88;;;13.10;99.90;;;;;;4592754;19;20010;-30
2022/12/30 07:55:25;;;;;;;8.70;4.53;;;13.10;99.90;;;;;;4591892;19;20031;-29
2022/12/30 07:56:57;;;;;;;7.95;4.03;;;13.10;99.90;;;;;;4590652;19;20061;-31
2022/12/30 07:58:28;;;;;;;8.02;4.55;;;13.10;99.90;;;;;;4591245;19;20507;-29
2022/12/30 07:59:59;;;;;;;8.73;5.15;;;13.10;99.90;;;;;;4590102;19;20391;-30
2022/12/30 08:01:31;;;;;;;9.33;4.73;;;13.10;99.90;;;;;;4591107;19;20348;-33
2022/12/30 08:03:03;;;;;;;11.65;5.43;;;13.10;99.90;;;;;;4592038;19;20018;-29
2022/12/30 08:18:39;;;;;;;8.87;5.67;;;13.10;99.90;;;;;;4590188;19;20022;-34
2022/12/30 08:20:11;;;;;;;8.33;4.47;;;13.10;99.90;;;;;;4588605;19;20014;-31
2022/12/30 08:21:42;;;;;;;8.73;4.43;;;13.10;99.90;;;;;;4589284;19;20025;-31
2022/12/30 08:23:14;;;;;;;8.97;5.50;;;13.00;99.90;;;;;;4589495;19;20010;-31
2022/12/30 08:24:47;;;;;;;9.13;5.60;;;13.10;99.90;;;;;;4589898;19;20037;-29
2022/12/30 08:26:20;;;;;;;9.35;5.80;;;13.00;99.90;;;;;;4590283;19;20022;-33
2022/12/30 08:27:52;;;;;;;10.13;6.50;;;13.00;99.90;;;;;;4589674;19;20090;-31
2022/12/30 08:29:23;;;;;;;11.77;5.72;;;13.00;99.90;;;;;;4589518;19;20470;-30
2022/12/30 08:30:56;;;;;;;13.00;6.00;;;13.00;99.90;;;;;;4589623;19;20007;-32
2022/12/30 08:32:27;;;;;;;15.02;7.57;;;13.00;99.90;;;;;;4591341;19;20014;-28
2022/12/30 08:33:58;;;;;;;17.42;7.57;;;13.00;99.90;;;;;;4590334;19;20007;-29
2022/12/30 08:35:29;;;;;;;13.48;7.40;;;13.00;99.90;;;;;;4590444;19;20010;-31
2022/12/30 08:37:00;;;;;;;15.18;7.38;;;12.90;99.90;;;;;;4588493;19;20015;-29
2022/12/30 08:38:33;;;;;;;;;;;13.00;99.90;;;;;;4590706;19;20010;-29
2022/12/30 08:40:05;;;;;;;10.07;6.03;;;13.00;99.90;;;;;;4589961;19;19942;-31
2022/12/30 08:41:38;;;;;;;11.07;5.57;;;13.00;99.90;;;;;;4588956;19;20030;-29
2022/12/30 08:43:10;;;;;;;13.33;7.20;;;12.90;99.90;;;;;;4588107;19;20468;-32
2022/12/30 08:44:41;;;;;;;17.80;9.75;;;12.90;99.90;;;;;;4588025;19;20022;-30
2022/12/30 08:46:12;;;;;;;17.02;10.10;;;12.90;99.90;;;;;;4587659;19;20010;-31
2022/12/30 08:47:44;;;;;;;11.93;7.00;;;12.90;99.90;;;;;;4588042;19;20590;-32
2022/12/30 08:49:15;;;;;;;15.23;8.77;;;12.90;99.90;;;;;;4588094;19;20021;-29
2022/12/30 08:50:46;;;;;;;12.05;7.47;;;12.90;99.90;;;;;;4588417;19;20011;-29
2022/12/30 08:52:17;;;;;;;9.98;5.18;;;12.90;99.90;;;;;;4588353;19;20070;-31
2022/12/30 08:53:48;;;;;;;10.68;5.05;;;12.90;99.90;;;;;;4588474;19;20135;-29
2022/12/30 08:55:19;;;;;;;11.93;6.30;;;12.90;99.90;;;;;;4589367;19;20014;-31
2022/12/30 08:56:51;;;;;;;9.07;4.35;;;12.90;99.90;;;;;;4586934;19;20472;-31
2022/12/30 08:58:21;;;;;;;12.05;4.93;;;12.90;99.90;;;;;;4588319;19;20010;-30
2022/12/30 08:59:52;;;;;;;8.18;4.75;;;12.90;99.90;;;;;;4588464;19;20628;-31
2022/12/30 09:01:28;;;;;;;11.50;5.63;;;12.90;99.90;;;;;;4588032;19;20340;-29
2022/12/30 09:02:59;;;;;;;8.57;4.90;;;12.90;99.90;;;;;;4587651;19;20358;-31
2022/12/30 09:04:31;;;;;;;9.15;4.53;;;12.90;99.90;;;;;;4587625;19;20011;-30
2022/12/30 09:06:02;;;;;;;8.68;4.90;;;12.90;99.90;;;;;;4588129;19;20092;-32
2022/12/30 09:07:33;;;;;;;8.57;5.20;;;12.90;99.90;;;;;;4587974;19;20015;-30
2022/12/30 09:09:05;;;;;;;14.70;7.53;;;12.90;99.90;;;;;;4587734;19;20444;-30
2022/12/30 09:10:36;;;;;;;19.10;8.70;;;12.80;99.90;;;;;;4588236;19;20007;-30
2022/12/30 09:12:08;;;;;;;31.45;18.98;;;12.80;99.90;;;;;;4588148;19;20040;-30
2022/12/30 09:13:39;;;;;;;34.35;22.67;;;12.80;99.90;;;;;;4587863;19;20381;-28
2022/12/30 09:15:10;;;;;;;25.20;16.60;;;12.80;99.90;;;;;;4589887;19;20027;-30
2022/12/30 09:16:42;;;;;;;21.60;14.77;;;12.80;99.90;;;;;;4589447;19;20010;-30
2022/12/30 09:18:13;;;;;;;25.80;18.05;;;12.90;99.90;;;;;;4589177;19;20002;-30
2022/12/30 09:21:27;;;;;;;26.23;17.20;;;12.80;99.90;;;;;;4589322;19;20103;-30
2022/12/30 09:22:58;;;;;;;17.17;11.30;;;12.80;99.90;;;;;;4590041;19;20010;-33
2022/12/30 09:24:30;;;;;;;14.00;6.60;;;12.80;99.90;;;;;;4589810;19;20007;-31
2022/12/30 09:26:02;;;;;;;16.85;7.55;;;12.80;99.90;;;;;;4590148;19;20483;-31
2022/12/30 09:27:33;;;;;;;12.77;6.80;;;12.80;99.90;;;;;;4589136;19;20034;-30
2022/12/30 09:29:04;;;;;;;9.52;4.78;;;12.80;99.90;;;;;;4588913;19;20341;-30
2022/12/30 09:30:36;;;;;;;8.82;4.13;;;12.80;99.90;;;;;;4587905;19;20014;-29
2022/12/30 09:32:07;;;;;;;9.80;5.28;;;12.80;99.90;;;;;;4592150;19;20002;-31
2022/12/30 09:33:38;;;;;;;8.40;4.75;;;12.80;99.90;;;;;;4594106;19;20018;-30
2022/12/30 09:35:09;;;;;;;8.85;5.13;;;12.80;99.90;;;;;;4594318;19;20030;-31
2022/12/30 09:36:40;;;;;;;10.90;5.88;;;12.80;99.90;;;;;;4591031;19;20014;-32
2022/12/30 09:38:11;;;;;;;10.38;5.53;;;12.80;99.90;;;;;;4594517;19;20014;-31
2022/12/30 09:39:42;;;;;;;9.30;4.40;;;12.80;99.90;;;;;;4595316;19;20467;-31
2022/12/30 09:43:14;;;;;;;14.93;7.38;;;12.80;99.90;;;;;;4595100;19;20105;-32
2022/12/30 09:43:29;;;;;;;27.97;16.10;;;12.80;99.90;;;;;;4595431;19;20015;-31
2022/12/30 09:45:12;;;;;;;25.37;15.33;;;12.80;99.90;;;;;;4591363;19;20015;-30
2022/12/30 09:47:10;;;;;;;25.23;13.90;;;12.80;99.90;;;;;;4591392;19;20006;-31
2022/12/30 09:48:46;;;;;;;13.30;8.27;;;12.90;99.90;;;;;;4592711;19;20014;-30
2022/12/30 09:50:17;;;;;;;15.87;7.60;;;12.90;99.90;;;;;;4591059;19;20025;-30
2022/12/30 09:52:11;;;;;;;14.10;5.85;;;12.90;99.90;;;;;;4592613;19;20464;-31
2022/12/30 09:54:09;;;;;;;13.70;8.40;;;12.90;99.90;;;;;;4591439;19;20019;-31
2022/12/30 09:55:48;;;;;;;11.50;6.30;;;12.80;99.90;;;;;;4592582;19;20011;-30
2022/12/30 09:57:32;;;;;;;12.23;5.50;;;12.80;99.90;;;;;;4591398;19;20011;-32
2022/12/30 09:59:17;;;;;;;10.37;5.13;;;12.80;99.90;;;;;;4592367;19;20023;-33
2022/12/30 10:00:48;;;;;;;9.50;5.30;;;12.80;99.90;;;;;;4591702;19;20014;-33
2022/12/30 10:02:25;;;;;;;12.52;6.75;;;12.80;99.90;;;;;;4591437;19;20052;-31
2022/12/30 10:04:00;;;;;;;10.77;5.87;;;12.80;99.90;;;;;;4591646;19;20025;-30
2022/12/30 10:05:34;;;;;;;11.43;5.90;;;12.80;99.90;;;;;;4591190;19;20014;-29
2022/12/30 10:07:08;;;;;;;10.07;5.00;;;12.80;99.90;;;;;;4590969;19;20085;-32
2022/12/30 10:08:44;;;;;;;9.93;5.17;;;12.80;99.90;;;;;;4593765;19;20006;-31
2022/12/30 10:10:17;;;;;;;11.30;5.80;;;12.80;99.90;;;;;;4594397;19;20044;-31
2022/12/30 10:11:47;;;;;;;10.27;5.23;;;12.80;99.90;;;;;;4594126;19;20007;-29
2022/12/30 10:13:32;;;;;;;17.65;7.53;;;12.90;99.90;;;;;;4593714;19;20015;-30
2022/12/30 10:15:28;;;;;;;10.03;5.73;;;12.90;99.90;;;;;;4592617;19;20510;-30
2022/12/30 10:17:05;;;;;;;11.73;5.60;;;13.00;99.90;;;;;;4592759;19;20388;-29
2022/12/30 10:18:45;;;;;;;12.53;5.70;;;13.00;99.90;;;;;;4594394;19;20018;-30
2022/12/30 10:23:40;;;;;;;10.63;5.30;;;13.10;99.90;;;;;;4590759;19;19983;-30
2022/12/30 10:25:34;;;;;;;14.17;6.57;;;13.10;99.90;;;;;;4590873;19;20027;-32
2022/12/30 10:27:20;;;;;;;11.17;6.43;;;13.00;99.90;;;;;;4591886;19;20244;-29
2022/12/30 10:28:59;;;;;;;13.77;6.73;;;13.00;99.90;;;;;;4590691;19;20019;-30
2022/12/30 10:30:39;;;;;;;13.23;5.77;;;13.10;99.90;;;;;;4591745;19;20007;-31
2022/12/30 10:32:21;;;;;;;10.53;5.27;;;13.10;99.90;;;;;;4591183;19;20361;-31
2022/12/30 10:33:54;;;;;;;9.88;5.53;;;13.10;99.90;;;;;;4590956;19;20011;-34
2022/12/30 10:35:29;;;;;;;10.70;4.77;;;13.10;99.90;;;;;;4591447;19;20026;-32
2022/12/30 10:37:01;;;;;;;15.67;6.50;;;13.10;99.90;;;;;;4588922;19;20018;-31
2022/12/30 10:38:32;;;;;;;10.70;5.07;;;13.10;99.90;;;;;;4590220;19;20006;-34
2022/12/30 10:40:08;;;;;;;10.65;4.75;;;13.10;99.90;;;;;;4589235;19;20090;-31
2022/12/30 10:42:10;;;;;;;10.23;5.13;;;13.10;99.90;;;;;;4589644;19;20006;-33
2022/12/30 10:43:58;;;;;;;10.67;4.83;;;13.00;99.90;;;;;;4587672;19;20015;-30
2022/12/30 10:45:30;;;;;;;11.40;4.23;;;13.00;99.90;;;;;;4589959;19;20167;-31
2022/12/30 10:47:22;;;;;;;11.25;5.05;;;13.00;99.90;;;;;;4589235;19;20527;-33
2022/12/30 10:49:20;;;;;;;10.53;4.23;;;13.00;99.90;;;;;;4589194;19;20017;-31
2022/12/30 10:50:52;;;;;;;14.17;6.47;;;13.00;99.90;;;;;;4589344;19;20014;-32
2022/12/30 10:52:23;;;;;;;10.15;4.50;;;13.00;99.90;;;;;;4590028;19;20297;-30
2022/12/30 10:53:54;;;;;;;13.65;6.93;;;13.00;99.90;;;;;;4589005;19;20511;-30
2022/12/30 10:55:27;;;;;;;11.77;5.60;;;13.00;99.90;;;;;;4589130;19;20026;-30
2022/12/30 10:56:58;;;;;;;9.60;5.10;;;13.00;99.90;;;;;;4587470;19;20014;-30
2022/12/30 10:58:37;;;;;;;15.48;8.30;;;13.00;99.90;;;;;;4591857;19;20018;-30
2022/12/30 11:00:10;;;;;;;14.30;6.93;;;13.00;99.90;;;;;;4591095;19;20510;-31
2022/12/30 11:01:42;;;;;;;13.70;6.20;;;13.00;99.90;;;;;;4590533;19;20014;-30
2022/12/30 11:03:30;;;;;;;11.77;5.50;;;13.00;99.90;;;;;;4590026;19;20014;-31
2022/12/30 11:05:02;;;;;;;12.17;6.30;;;13.00;99.90;;;;;;4590946;19;20024;-30
2022/12/30 11:06:35;;;;;;;9.90;4.72;;;13.00;99.90;;;;;;4590926;19;20464;-32
2022/12/30 11:08:27;;;;;;;10.70;5.13;;;13.00;99.90;;;;;;4589741;19;20017;-35
2022/12/30 11:10:08;;;;;;;12.93;5.07;;;13.00;99.90;;;;;;4590219;19;20027;-33
2022/12/30 11:15:29;;;;;;;11.53;5.03;;;12.80;99.90;;;;;;4590724;19;20007;-31
2022/12/30 11:17:27;;;;;;;9.95;4.28;;;12.80;99.90;;;;;;4589811;19;20053;-32
2022/12/30 11:19:01;;;;;;;13.37;5.73;;;12.80;99.90;;;;;;4588133;19;20025;-30
2022/12/30 11:20:39;;;;;;;9.20;5.00;;;12.80;99.90;;;;;;4590870;19;20014;-31
2022/12/30 11:22:10;;;;;;;11.17;4.90;;;12.80;99.90;;;;;;4590389;19;20011;-30
2022/12/30 11:23:41;;;;;;;9.95;4.63;;;12.90;99.90;;;;;;4590389;19;20397;-30
2022/12/30 11:25:17;;;;;;;;;;;12.80;99.90;;;;;;4590635;19;20127;-33
2022/12/30 11:26:48;;;;;;;10.00;4.27;;;12.80;99.90;;;;;;4589219;19;19915;-34
2022/12/30 11:28:25;;;;;;;12.35;4.75;;;12.80;99.90;;;;;;4589758;19;20010;-30
2022/12/30 11:29:57;;;;;;;10.33;5.13;;;12.80;99.90;;;;;;4590570;19;20011;-32
2022/12/30 11:31:35;;;;;;;10.48;4.30;;;12.80;99.90;;;;;;4589580;19;20062;-30
2022/12/30 11:33:34;;;;;;;11.10;4.80;;;12.90;99.90;;;;;;4590336;19;20034;-33
2022/12/30 11:35:10;;;;;;;8.83;3.67;;;12.80;99.90;;;;;;4589998;19;20390;-31
2022/12/30 11:36:41;;;;;;;12.23;4.73;;;12.80;99.90;;;;;;4588394;19;20054;-32
2022/12/30 11:38:31;;;;;;;13.90;4.95;;;12.80;99.90;;;;;;4590534;19;20066;-31
2022/12/30 11:40:34;;;;;;;10.00;4.70;;;12.80;99.90;;;;;;4589720;19;20070;-32
2022/12/30 11:42:06;;;;;;;9.98;3.80;;;12.80;99.90;;;;;;4590090;19;20014;-30
2022/12/30 11:43:37;;;;;;;10.68;4.68;;;12.80;99.90;;;;;;4588564;19;20010;-31
2022/12/30 11:45:18;;;;;;;;;;;12.80;99.90;;;;;;4590684;19;20023;-29
2022/12/30 11:46:58;;;;;;;9.83;4.10;;;12.80;99.90;;;;;;4589031;19;19918;-30
2022/12/30 11:48:47;;;;;;;11.83;5.30;;;12.80;99.90;;;;;;4589675;19;20010;-31
2022/12/30 11:50:19;;;;;;;13.83;5.97;;;12.80;99.90;;;;;;4588931;19;20019;-29
2022/12/30 11:51:51;;;;;;;15.10;6.03;;;12.90;99.90;;;;;;4588389;19;20011;-30
2022/12/30 11:53:24;;;;;;;;;;;12.90;99.90;;;;;;4591878;19;20025;-29
2022/12/30 11:54:58;;;;;;;12.63;5.90;;;12.90;99.90;;;;;;4590705;19;19974;-32
2022/12/30 11:56:29;;;;;;;12.60;6.13;;;12.90;99.90;;;;;;4588655;19;20007;-31
2022/12/30 11:58:00;;;;;;;13.68;6.88;;;12.90;99.90;;;;;;4590326;19;20405;-31
2022/12/30 11:59:58;;;;;;;12.03;6.33;;;12.90;99.90;;;;;;4589980;19;20021;-33
2022/12/30 12:01:29;;;;;;;13.00;5.57;;;12.90;99.90;;;;;;4589522;19;20061;-32
2022/12/30 12:03:08;;;;;;;11.97;4.93;;;12.90;99.90;;;;;;4588877;19;20507;-32
2022/12/30 12:04:41;;;;;;;11.17;5.30;;;12.90;99.90;;;;;;4588573;19;20010;-32
2022/12/30 12:06:12;;;;;;;12.30;5.47;;;12.90;99.90;;;;;;4588615;19;20011;-32
2022/12/30 12:07:45;;;;;;;13.57;6.05;;;12.90;99.90;;;;;;4588235;19;20025;-30
2022/12/30 12:09:16;;;;;;;16.17;7.00;;;12.90;99.90;;;;;;4588044;19;20045;-32
2022/12/30 12:11:23;;;;;;;20.27;8.53;;;12.80;99.90;;;;;;4587338;19;20033;-35
2022/12/30 12:13:30;;;;;;;30.77;11.90;;;12.80;99.90;;;;;;4587571;19;20032;-32
2022/12/30 12:15:10;;;;;;;32.57;12.70;;;12.80;99.90;;;;;;4588666;19;20596;-33
2022/12/30 12:16:50;;;;;;;22.43;9.50;;;12.80;99.90;;;;;;4588377;19;20033;-32
2022/12/30 12:18:21;;;;;;;18.53;9.30;;;12.80;99.90;;;;;;4588914;19;20136;-29
2022/12/30 12:20:06;;;;;;;14.63;6.93;;;12.80;99.90;;;;;;4589740;19;20026;-30
2022/12/30 12:21:39;;;;;;;13.33;6.00;;;12.90;99.90;;;;;;4589922;19;20014;-32
2022/12/30 12:23:41;;;;;;;13.07;6.63;;;12.90;99.90;;;;;;4589680;19;20018;-30
2022/12/30 12:25:21;;;;;;;11.10;5.15;;;12.80;99.90;;;;;;4588796;19;20247;-32
2022/12/30 12:27:12;;;;;;;11.77;4.40;;;12.80;99.90;;;;;;4588832;19;20011;-31
2022/12/30 12:28:44;;;;;;;16.73;7.30;;;12.80;99.90;;;;;;4588239;19;20027;-29
2022/12/30 12:30:16;;;;;;;30.33;10.93;;;12.80;99.90;;;;;;4589175;19;20014;-30
2022/12/30 12:32:30;;;;;;;30.67;11.47;;;12.80;99.90;;;;;;4589468;19;20011;-30
2022/12/30 12:34:06;;;;;;;;;;;12.80;99.90;;;;;;4590241;19;20514;-30
2022/12/30 12:35:54;;;;;;;13.60;5.37;;;12.80;99.90;;;;;;4588473;19;19932;-29